sensor_id;sensor_type;location;lat;lon;timestamp;P1;durP1;ratioP1;P2;durP2;ratioP2
59338;SDS011;45117;50.960;5.500;2023-03-20T00:01:17;14.50;;;6.00;;
59338;SDS011;45117;50.960;5.500;2023-03-20T00:03:47;10.45;;;5.20;;
59338;SDS011;45117;50.960;5.500;2023-03-20T00:06:16;10.50;;;5.40;;
59338;SDS011;45117;50.960;5.500;2023-03-20T00:08:44;14.63;;;5.20;;
59338;SDS011;45117;50.960;5.500;2023-03-20T00:11:21;8.98;;;4.45;;
59338;SDS011;45117;50.960;5.500;2023-03-20T00:13:53;8.90;;;4.20;;
59338;SDS011;45117;50.960;5.500;2023-03-20T00:16:20;8.85;;;4.85;;
59338;SDS011;45117;50.960;5.500;2023-03-20T00:18:50;8.00;;;4.55;;
59338;SDS011;45117;50.960;5.500;2023-03-20T00:21:17;8.25;;;4.35;;
59338;SDS011;45117;50.960;5.500;2023-03-20T00:23:44;6.75;;;3.70;;
59338;SDS011;45117;50.960;5.500;2023-03-20T00:26:11;9.00;;;3.88;;
59338;SDS011;45117;50.960;5.500;2023-03-20T00:28:40;7.22;;;4.00;;
59338;SDS011;45117;50.960;5.500;2023-03-20T00:31:17;7.78;;;3.85;;
59338;SDS011;45117;50.960;5.500;2023-03-20T00:33:50;7.68;;;3.67;;
59338;SDS011;45117;50.960;5.500;2023-03-20T00:36:18;7.70;;;3.40;;
59338;SDS011;45117;50.960;5.500;2023-03-20T00:38:44;8.48;;;3.35;;
59338;SDS011;45117;50.960;5.500;2023-03-20T00:41:14;6.60;;;3.40;;
59338;SDS011;45117;50.960;5.500;2023-03-20T00:43:47;6.00;;;3.22;;
59338;SDS011;45117;50.960;5.500;2023-03-20T00:46:16;6.55;;;3.05;;
59338;SDS011;45117;50.960;5.500;2023-03-20T00:48:43;7.03;;;3.25;;
59338;SDS011;45117;50.960;5.500;2023-03-20T00:51:12;6.40;;;3.63;;
59338;SDS011;45117;50.960;5.500;2023-03-20T00:53:40;5.90;;;3.20;;
59338;SDS011;45117;50.960;5.500;2023-03-20T00:56:08;8.13;;;3.35;;
59338;SDS011;45117;50.960;5.500;2023-03-20T00:58:53;6.97;;;3.30;;
59338;SDS011;45117;50.960;5.500;2023-03-20T01:01:20;8.43;;;3.50;;
59338;SDS011;45117;50.960;5.500;2023-03-20T01:03:46;10.15;;;3.92;;
59338;SDS011;45117;50.960;5.500;2023-03-20T01:06:14;8.18;;;3.45;;
59338;SDS011;45117;50.960;5.500;2023-03-20T01:08:43;7.47;;;3.90;;
59338;SDS011;45117;50.960;5.500;2023-03-20T01:11:10;8.07;;;3.63;;
59338;SDS011;45117;50.960;5.500;2023-03-20T01:13:38;9.13;;;4.20;;
59338;SDS011;45117;50.960;5.500;2023-03-20T01:16:11;9.65;;;4.93;;
59338;SDS011;45117;50.960;5.500;2023-03-20T01:18:45;11.02;;;5.15;;
59338;SDS011;45117;50.960;5.500;2023-03-20T01:21:12;12.27;;;5.72;;
59338;SDS011;45117;50.960;5.500;2023-03-20T01:23:40;14.45;;;6.68;;
59338;SDS011;45117;50.960;5.500;2023-03-20T01:26:10;21.92;;;8.45;;
59338;SDS011;45117;50.960;5.500;2023-03-20T01:28:46;19.23;;;8.32;;
59338;SDS011;45117;50.960;5.500;2023-03-20T01:31:13;19.05;;;8.73;;
59338;SDS011;45117;50.960;5.500;2023-03-20T01:33:41;19.38;;;8.65;;
59338;SDS011;45117;50.960;5.500;2023-03-20T01:36:08;19.95;;;8.48;;
59338;SDS011;45117;50.960;5.500;2023-03-20T01:38:36;19.05;;;8.45;;
59338;SDS011;45117;50.960;5.500;2023-03-20T01:41:05;22.00;;;8.40;;
59338;SDS011;45117;50.960;5.500;2023-03-20T01:43:34;19.77;;;8.18;;
59338;SDS011;45117;50.960;5.500;2023-03-20T01:46:02;22.02;;;9.80;;
59338;SDS011;45117;50.960;5.500;2023-03-20T01:51:23;22.23;;;9.02;;
59338;SDS011;45117;50.960;5.500;2023-03-20T01:53:52;18.98;;;8.50;;
59338;SDS011;45117;50.960;5.500;2023-03-20T01:56:24;19.95;;;8.80;;
59338;SDS011;45117;50.960;5.500;2023-03-20T01:58:55;20.70;;;9.38;;
59338;SDS011;45117;50.960;5.500;2023-03-20T02:01:25;23.70;;;9.13;;
59338;SDS011;45117;50.960;5.500;2023-03-20T02:03:52;20.73;;;9.38;;
59338;SDS011;45117;50.960;5.500;2023-03-20T02:06:20;21.23;;;8.68;;
59338;SDS011;45117;50.960;5.500;2023-03-20T02:08:49;19.25;;;8.27;;
59338;SDS011;45117;50.960;5.500;2023-03-20T02:11:17;19.95;;;9.32;;
59338;SDS011;45117;50.960;5.500;2023-03-20T02:13:49;20.45;;;8.13;;
59338;SDS011;45117;50.960;5.500;2023-03-20T02:16:17;23.63;;;8.93;;
59338;SDS011;45117;50.960;5.500;2023-03-20T02:18:45;17.75;;;7.90;;
59338;SDS011;45117;50.960;5.500;2023-03-20T02:21:25;20.67;;;8.95;;
59338;SDS011;45117;50.960;5.500;2023-03-20T02:27:17;17.77;;;7.78;;
59338;SDS011;45117;50.960;5.500;2023-03-20T02:33:15;19.58;;;8.30;;
59338;SDS011;45117;50.960;5.500;2023-03-20T02:36:32;19.00;;;8.20;;
59338;SDS011;45117;50.960;5.500;2023-03-20T02:39:22;18.83;;;7.88;;
59338;SDS011;45117;50.960;5.500;2023-03-20T02:41:56;19.13;;;7.90;;
59338;SDS011;45117;50.960;5.500;2023-03-20T02:44:30;14.65;;;7.07;;
59338;SDS011;45117;50.960;5.500;2023-03-20T02:47:01;17.10;;;7.28;;
59338;SDS011;45117;50.960;5.500;2023-03-20T02:49:33;19.08;;;7.80;;
59338;SDS011;45117;50.960;5.500;2023-03-20T02:52:13;18.45;;;7.82;;
59338;SDS011;45117;50.960;5.500;2023-03-20T02:54:47;17.67;;;7.45;;
59338;SDS011;45117;50.960;5.500;2023-03-20T02:57:19;15.73;;;7.38;;
59338;SDS011;45117;50.960;5.500;2023-03-20T02:59:53;16.42;;;7.30;;
59338;SDS011;45117;50.960;5.500;2023-03-20T03:02:22;14.57;;;6.90;;
59338;SDS011;45117;50.960;5.500;2023-03-20T03:04:56;18.45;;;7.68;;
59338;SDS011;45117;50.960;5.500;2023-03-20T03:07:28;18.60;;;8.20;;
59338;SDS011;45117;50.960;5.500;2023-03-20T03:10:00;15.38;;;7.07;;
59338;SDS011;45117;50.960;5.500;2023-03-20T03:12:31;19.50;;;7.47;;
59338;SDS011;45117;50.960;5.500;2023-03-20T03:15:03;17.70;;;7.65;;
59338;SDS011;45117;50.960;5.500;2023-03-20T03:17:33;18.58;;;7.60;;
59338;SDS011;45117;50.960;5.500;2023-03-20T03:20:03;15.95;;;7.13;;
59338;SDS011;45117;50.960;5.500;2023-03-20T03:22:34;17.45;;;7.28;;
59338;SDS011;45117;50.960;5.500;2023-03-20T03:25:02;15.00;;;7.22;;
59338;SDS011;45117;50.960;5.500;2023-03-20T03:27:31;17.52;;;7.38;;
59338;SDS011;45117;50.960;5.500;2023-03-20T03:30:02;17.42;;;7.63;;
59338;SDS011;45117;50.960;5.500;2023-03-20T03:32:33;17.05;;;7.38;;
59338;SDS011;45117;50.960;5.500;2023-03-20T03:35:01;15.25;;;7.07;;
59338;SDS011;45117;50.960;5.500;2023-03-20T03:37:35;13.63;;;6.85;;
59338;SDS011;45117;50.960;5.500;2023-03-20T03:40:12;18.05;;;8.68;;
59338;SDS011;45117;50.960;5.500;2023-03-20T03:42:46;17.15;;;7.70;;
59338;SDS011;45117;50.960;5.500;2023-03-20T03:45:20;18.92;;;8.57;;
59338;SDS011;45117;50.960;5.500;2023-03-20T03:47:53;18.02;;;8.25;;
59338;SDS011;45117;50.960;5.500;2023-03-20T03:50:24;19.75;;;8.70;;
59338;SDS011;45117;50.960;5.500;2023-03-20T03:52:55;22.88;;;8.50;;
59338;SDS011;45117;50.960;5.500;2023-03-20T03:55:26;20.17;;;8.98;;
59338;SDS011;45117;50.960;5.500;2023-03-20T03:57:58;18.30;;;7.93;;
59338;SDS011;45117;50.960;5.500;2023-03-20T04:00:28;18.50;;;7.70;;
59338;SDS011;45117;50.960;5.500;2023-03-20T04:02:57;16.10;;;7.40;;
59338;SDS011;45117;50.960;5.500;2023-03-20T04:05:27;16.13;;;7.90;;
59338;SDS011;45117;50.960;5.500;2023-03-20T04:07:57;20.10;;;8.55;;
59338;SDS011;45117;50.960;5.500;2023-03-20T04:10:26;17.73;;;7.88;;
59338;SDS011;45117;50.960;5.500;2023-03-20T04:12:53;19.33;;;8.82;;
59338;SDS011;45117;50.960;5.500;2023-03-20T04:15:20;19.73;;;7.88;;
59338;SDS011;45117;50.960;5.500;2023-03-20T04:17:46;20.23;;;8.30;;
59338;SDS011;45117;50.960;5.500;2023-03-20T04:20:13;20.60;;;8.05;;
59338;SDS011;45117;50.960;5.500;2023-03-20T04:22:40;16.80;;;7.80;;
59338;SDS011;45117;50.960;5.500;2023-03-20T04:25:07;19.70;;;7.85;;
59338;SDS011;45117;50.960;5.500;2023-03-20T04:27:36;19.60;;;8.23;;
59338;SDS011;45117;50.960;5.500;2023-03-20T04:30:03;17.52;;;7.93;;
59338;SDS011;45117;50.960;5.500;2023-03-20T04:32:31;18.42;;;8.15;;
59338;SDS011;45117;50.960;5.500;2023-03-20T04:34:57;17.05;;;7.40;;
59338;SDS011;45117;50.960;5.500;2023-03-20T04:37:24;17.58;;;8.52;;
59338;SDS011;45117;50.960;5.500;2023-03-20T04:39:50;19.15;;;8.73;;
59338;SDS011;45117;50.960;5.500;2023-03-20T04:42:17;18.92;;;8.70;;
59338;SDS011;45117;50.960;5.500;2023-03-20T04:44:45;21.85;;;9.20;;
59338;SDS011;45117;50.960;5.500;2023-03-20T04:47:11;22.75;;;9.73;;
59338;SDS011;45117;50.960;5.500;2023-03-20T04:49:38;25.90;;;10.25;;
59338;SDS011;45117;50.960;5.500;2023-03-20T04:52:04;23.27;;;9.75;;
59338;SDS011;45117;50.960;5.500;2023-03-20T04:54:31;23.83;;;9.52;;
59338;SDS011;45117;50.960;5.500;2023-03-20T04:56:57;21.70;;;9.70;;
59338;SDS011;45117;50.960;5.500;2023-03-20T04:59:24;23.20;;;9.82;;
59338;SDS011;45117;50.960;5.500;2023-03-20T05:01:52;23.23;;;9.73;;
59338;SDS011;45117;50.960;5.500;2023-03-20T05:04:18;23.98;;;9.70;;
59338;SDS011;45117;50.960;5.500;2023-03-20T05:06:45;21.80;;;10.07;;
59338;SDS011;45117;50.960;5.500;2023-03-20T05:09:13;21.40;;;10.30;;
59338;SDS011;45117;50.960;5.500;2023-03-20T05:11:40;33.70;;;10.65;;
59338;SDS011;45117;50.960;5.500;2023-03-20T05:14:06;21.98;;;9.48;;
59338;SDS011;45117;50.960;5.500;2023-03-20T05:16:32;25.05;;;10.88;;
59338;SDS011;45117;50.960;5.500;2023-03-20T05:19:00;28.92;;;11.35;;
59338;SDS011;45117;50.960;5.500;2023-03-20T05:21:27;24.35;;;10.90;;
59338;SDS011;45117;50.960;5.500;2023-03-20T05:23:53;28.10;;;11.60;;
59338;SDS011;45117;50.960;5.500;2023-03-20T05:26:20;27.85;;;11.85;;
59338;SDS011;45117;50.960;5.500;2023-03-20T05:28:46;24.83;;;10.65;;
59338;SDS011;45117;50.960;5.500;2023-03-20T05:31:13;28.13;;;11.57;;
59338;SDS011;45117;50.960;5.500;2023-03-20T05:33:40;28.63;;;11.95;;
59338;SDS011;45117;50.960;5.500;2023-03-20T05:36:08;30.98;;;11.75;;
59338;SDS011;45117;50.960;5.500;2023-03-20T05:38:35;23.35;;;10.35;;
59338;SDS011;45117;50.960;5.500;2023-03-20T05:41:01;27.48;;;12.02;;
59338;SDS011;45117;50.960;5.500;2023-03-20T05:43:28;30.80;;;12.02;;
59338;SDS011;45117;50.960;5.500;2023-03-20T05:45:55;29.17;;;11.48;;
59338;SDS011;45117;50.960;5.500;2023-03-20T05:48:22;28.95;;;11.32;;
59338;SDS011;45117;50.960;5.500;2023-03-20T05:50:49;28.90;;;11.32;;
59338;SDS011;45117;50.960;5.500;2023-03-20T05:53:17;29.13;;;11.30;;
59338;SDS011;45117;50.960;5.500;2023-03-20T05:55:43;28.63;;;11.73;;
59338;SDS011;45117;50.960;5.500;2023-03-20T05:58:10;29.63;;;11.23;;
59338;SDS011;45117;50.960;5.500;2023-03-20T06:00:37;32.38;;;12.43;;
59338;SDS011;45117;50.960;5.500;2023-03-20T06:03:03;31.08;;;11.65;;
59338;SDS011;45117;50.960;5.500;2023-03-20T06:05:31;26.15;;;11.13;;
59338;SDS011;45117;50.960;5.500;2023-03-20T06:07:57;26.08;;;11.02;;
59338;SDS011;45117;50.960;5.500;2023-03-20T06:10:25;26.58;;;10.02;;
59338;SDS011;45117;50.960;5.500;2023-03-20T06:12:54;32.05;;;11.60;;
59338;SDS011;45117;50.960;5.500;2023-03-20T06:15:21;29.75;;;11.02;;
59338;SDS011;45117;50.960;5.500;2023-03-20T06:17:48;31.30;;;11.32;;
59338;SDS011;45117;50.960;5.500;2023-03-20T06:20:15;27.77;;;11.18;;
59338;SDS011;45117;50.960;5.500;2023-03-20T06:22:42;31.63;;;11.13;;
59338;SDS011;45117;50.960;5.500;2023-03-20T06:25:09;27.27;;;10.65;;
59338;SDS011;45117;50.960;5.500;2023-03-20T06:27:37;24.50;;;10.43;;
59338;SDS011;45117;50.960;5.500;2023-03-20T06:30:04;30.15;;;10.40;;
59338;SDS011;45117;50.960;5.500;2023-03-20T06:32:31;28.42;;;10.80;;
59338;SDS011;45117;50.960;5.500;2023-03-20T06:34:58;27.20;;;9.63;;
59338;SDS011;45117;50.960;5.500;2023-03-20T06:37:24;28.08;;;10.07;;
59338;SDS011;45117;50.960;5.500;2023-03-20T06:39:51;26.90;;;9.85;;
59338;SDS011;45117;50.960;5.500;2023-03-20T06:42:17;23.17;;;8.60;;
59338;SDS011;45117;50.960;5.500;2023-03-20T06:44:45;22.50;;;9.32;;
59338;SDS011;45117;50.960;5.500;2023-03-20T06:47:12;25.45;;;9.73;;
59338;SDS011;45117;50.960;5.500;2023-03-20T06:49:38;28.75;;;9.48;;
59338;SDS011;45117;50.960;5.500;2023-03-20T06:52:05;21.27;;;8.93;;
59338;SDS011;45117;50.960;5.500;2023-03-20T06:54:33;23.50;;;9.00;;
59338;SDS011;45117;50.960;5.500;2023-03-20T06:56:59;26.67;;;9.85;;
59338;SDS011;45117;50.960;5.500;2023-03-20T06:59:26;29.55;;;10.18;;
59338;SDS011;45117;50.960;5.500;2023-03-20T07:01:54;23.67;;;9.65;;
59338;SDS011;45117;50.960;5.500;2023-03-20T07:04:20;25.02;;;9.05;;
59338;SDS011;45117;50.960;5.500;2023-03-20T07:06:46;21.27;;;8.98;;
59338;SDS011;45117;50.960;5.500;2023-03-20T07:09:13;26.02;;;8.85;;
59338;SDS011;45117;50.960;5.500;2023-03-20T07:11:41;24.42;;;8.55;;
59338;SDS011;45117;50.960;5.500;2023-03-20T07:14:09;25.35;;;8.77;;
59338;SDS011;45117;50.960;5.500;2023-03-20T07:16:35;27.13;;;8.70;;
59338;SDS011;45117;50.960;5.500;2023-03-20T07:19:03;25.55;;;8.30;;
59338;SDS011;45117;50.960;5.500;2023-03-20T07:21:30;21.80;;;8.45;;
59338;SDS011;45117;50.960;5.500;2023-03-20T07:23:57;18.20;;;7.18;;
59338;SDS011;45117;50.960;5.500;2023-03-20T07:26:23;22.65;;;7.88;;
59338;SDS011;45117;50.960;5.500;2023-03-20T07:28:51;23.75;;;7.53;;
59338;SDS011;45117;50.960;5.500;2023-03-20T07:31:18;22.75;;;8.35;;
59338;SDS011;45117;50.960;5.500;2023-03-20T07:33:46;18.83;;;6.93;;
59338;SDS011;45117;50.960;5.500;2023-03-20T07:36:14;17.98;;;7.35;;
59338;SDS011;45117;50.960;5.500;2023-03-20T07:38:40;18.30;;;6.35;;
59338;SDS011;45117;50.960;5.500;2023-03-20T07:41:07;17.23;;;6.50;;
59338;SDS011;45117;50.960;5.500;2023-03-20T07:43:33;18.58;;;6.85;;
59338;SDS011;45117;50.960;5.500;2023-03-20T07:46:00;21.98;;;6.90;;
59338;SDS011;45117;50.960;5.500;2023-03-20T07:48:27;17.85;;;7.03;;
59338;SDS011;45117;50.960;5.500;2023-03-20T07:50:54;17.73;;;5.50;;
59338;SDS011;45117;50.960;5.500;2023-03-20T07:53:22;19.33;;;6.20;;
59338;SDS011;45117;50.960;5.500;2023-03-20T07:55:48;17.83;;;5.85;;
59338;SDS011;45117;50.960;5.500;2023-03-20T07:58:15;16.40;;;5.97;;
59338;SDS011;45117;50.960;5.500;2023-03-20T08:00:42;22.23;;;5.50;;
59338;SDS011;45117;50.960;5.500;2023-03-20T08:03:08;15.20;;;5.07;;
59338;SDS011;45117;50.960;5.500;2023-03-20T08:05:35;16.65;;;5.40;;
59338;SDS011;45117;50.960;5.500;2023-03-20T08:08:02;15.57;;;5.68;;
59338;SDS011;45117;50.960;5.500;2023-03-20T08:10:31;11.40;;;4.93;;
59338;SDS011;45117;50.960;5.500;2023-03-20T08:12:57;11.93;;;4.57;;
59338;SDS011;45117;50.960;5.500;2023-03-20T08:15:24;13.75;;;4.68;;
59338;SDS011;45117;50.960;5.500;2023-03-20T08:17:50;10.80;;;4.50;;
59338;SDS011;45117;50.960;5.500;2023-03-20T08:20:17;14.32;;;4.47;;
59338;SDS011;45117;50.960;5.500;2023-03-20T08:22:44;14.10;;;3.97;;
59338;SDS011;45117;50.960;5.500;2023-03-20T08:25:10;13.30;;;4.00;;
59338;SDS011;45117;50.960;5.500;2023-03-20T08:27:38;15.40;;;3.80;;
59338;SDS011;45117;50.960;5.500;2023-03-20T08:30:05;13.40;;;4.00;;
59338;SDS011;45117;50.960;5.500;2023-03-20T08:32:33;10.68;;;3.78;;
59338;SDS011;45117;50.960;5.500;2023-03-20T08:35:00;13.95;;;4.18;;
59338;SDS011;45117;50.960;5.500;2023-03-20T08:37:27;10.07;;;3.70;;
59338;SDS011;45117;50.960;5.500;2023-03-20T08:39:54;11.00;;;3.13;;
59338;SDS011;45117;50.960;5.500;2023-03-20T08:42:20;11.55;;;3.40;;
59338;SDS011;45117;50.960;5.500;2023-03-20T08:44:48;11.07;;;3.20;;
59338;SDS011;45117;50.960;5.500;2023-03-20T08:47:14;10.68;;;3.33;;
59338;SDS011;45117;50.960;5.500;2023-03-20T08:49:41;11.50;;;3.58;;
59338;SDS011;45117;50.960;5.500;2023-03-20T08:52:08;11.13;;;3.40;;
59338;SDS011;45117;50.960;5.500;2023-03-20T08:54:34;10.07;;;3.30;;
59338;SDS011;45117;50.960;5.500;2023-03-20T08:57:01;11.63;;;3.40;;
59338;SDS011;45117;50.960;5.500;2023-03-20T08:59:27;12.52;;;3.75;;
59338;SDS011;45117;50.960;5.500;2023-03-20T09:01:56;10.57;;;3.58;;
59338;SDS011;45117;50.960;5.500;2023-03-20T09:04:23;10.93;;;3.30;;
59338;SDS011;45117;50.960;5.500;2023-03-20T09:06:50;14.02;;;4.90;;
59338;SDS011;45117;50.960;5.500;2023-03-20T09:09:16;12.82;;;3.72;;
59338;SDS011;45117;50.960;5.500;2023-03-20T09:11:45;11.20;;;3.70;;
59338;SDS011;45117;50.960;5.500;2023-03-20T09:14:12;10.45;;;3.67;;
59338;SDS011;45117;50.960;5.500;2023-03-20T09:16:38;12.98;;;4.20;;
59338;SDS011;45117;50.960;5.500;2023-03-20T09:19:06;12.05;;;4.05;;
59338;SDS011;45117;50.960;5.500;2023-03-20T09:21:33;11.57;;;4.05;;
59338;SDS011;45117;50.960;5.500;2023-03-20T09:23:59;11.10;;;3.70;;
59338;SDS011;45117;50.960;5.500;2023-03-20T09:26:26;10.90;;;3.30;;
59338;SDS011;45117;50.960;5.500;2023-03-20T09:28:52;10.90;;;3.35;;
59338;SDS011;45117;50.960;5.500;2023-03-20T09:31:19;9.68;;;2.92;;
59338;SDS011;45117;50.960;5.500;2023-03-20T09:33:47;13.65;;;3.88;;
59338;SDS011;45117;50.960;5.500;2023-03-20T09:36:15;8.57;;;3.67;;
59338;SDS011;45117;50.960;5.500;2023-03-20T09:38:41;11.40;;;3.63;;
59338;SDS011;45117;50.960;5.500;2023-03-20T09:41:11;11.80;;;3.80;;
59338;SDS011;45117;50.960;5.500;2023-03-20T09:43:44;12.23;;;3.85;;
59338;SDS011;45117;50.960;5.500;2023-03-20T09:46:31;9.60;;;3.17;;
59338;SDS011;45117;50.960;5.500;2023-03-20T09:49:16;11.50;;;3.28;;
59338;SDS011;45117;50.960;5.500;2023-03-20T09:51:54;7.30;;;2.97;;
59338;SDS011;45117;50.960;5.500;2023-03-20T09:54:23;11.63;;;3.50;;
59338;SDS011;45117;50.960;5.500;2023-03-20T09:56:52;11.38;;;3.88;;
59338;SDS011;45117;50.960;5.500;2023-03-20T09:59:21;10.52;;;3.17;;
59338;SDS011;45117;50.960;5.500;2023-03-20T10:01:50;13.75;;;3.65;;
59338;SDS011;45117;50.960;5.500;2023-03-20T10:04:19;12.50;;;3.20;;
59338;SDS011;45117;50.960;5.500;2023-03-20T10:06:46;10.82;;;3.70;;
59338;SDS011;45117;50.960;5.500;2023-03-20T10:12:41;11.15;;;3.80;;
59338;SDS011;45117;50.960;5.500;2023-03-20T10:15:17;10.65;;;3.70;;
59338;SDS011;45117;50.960;5.500;2023-03-20T10:17:51;11.85;;;4.05;;
59338;SDS011;45117;50.960;5.500;2023-03-20T10:20:25;12.90;;;3.83;;
59338;SDS011;45117;50.960;5.500;2023-03-20T10:22:57;11.77;;;4.10;;
59338;SDS011;45117;50.960;5.500;2023-03-20T10:25:30;12.02;;;3.92;;
59338;SDS011;45117;50.960;5.500;2023-03-20T10:28:00;11.18;;;3.63;;
59338;SDS011;45117;50.960;5.500;2023-03-20T10:30:32;16.52;;;4.47;;
59338;SDS011;45117;50.960;5.500;2023-03-20T10:33:08;8.38;;;3.92;;
59338;SDS011;45117;50.960;5.500;2023-03-20T10:35:42;13.70;;;3.83;;
59338;SDS011;45117;50.960;5.500;2023-03-20T10:38:22;7.85;;;3.58;;
59338;SDS011;45117;50.960;5.500;2023-03-20T10:40:55;8.38;;;3.80;;
59338;SDS011;45117;50.960;5.500;2023-03-20T10:43:25;12.07;;;4.20;;
59338;SDS011;45117;50.960;5.500;2023-03-20T10:45:56;8.90;;;3.30;;
59338;SDS011;45117;50.960;5.500;2023-03-20T10:48:28;13.10;;;3.90;;
59338;SDS011;45117;50.960;5.500;2023-03-20T10:50:59;11.13;;;4.68;;
59338;SDS011;45117;50.960;5.500;2023-03-20T10:53:31;12.65;;;4.63;;
59338;SDS011;45117;50.960;5.500;2023-03-20T10:56:04;10.80;;;4.53;;
59338;SDS011;45117;50.960;5.500;2023-03-20T10:58:34;13.13;;;4.60;;
59338;SDS011;45117;50.960;5.500;2023-03-20T11:01:05;11.93;;;4.70;;
59338;SDS011;45117;50.960;5.500;2023-03-20T11:03:32;13.60;;;4.75;;
59338;SDS011;45117;50.960;5.500;2023-03-20T11:06:03;12.68;;;5.70;;
59338;SDS011;45117;50.960;5.500;2023-03-20T11:08:34;11.63;;;4.18;;
59338;SDS011;45117;50.960;5.500;2023-03-20T11:11:03;10.60;;;4.13;;
59338;SDS011;45117;50.960;5.500;2023-03-20T11:13:31;11.38;;;3.70;;
59338;SDS011;45117;50.960;5.500;2023-03-20T11:16:10;13.27;;;3.50;;
59338;SDS011;45117;50.960;5.500;2023-03-20T11:18:45;8.52;;;3.65;;
59338;SDS011;45117;50.960;5.500;2023-03-20T11:21:14;15.93;;;4.20;;
59338;SDS011;45117;50.960;5.500;2023-03-20T11:23:43;11.05;;;3.72;;
59338;SDS011;45117;50.960;5.500;2023-03-20T11:26:11;12.07;;;3.80;;
59338;SDS011;45117;50.960;5.500;2023-03-20T11:28:41;8.93;;;3.35;;
59338;SDS011;45117;50.960;5.500;2023-03-20T11:31:16;10.73;;;3.58;;
59338;SDS011;45117;50.960;5.500;2023-03-20T11:33:45;13.40;;;3.95;;
59338;SDS011;45117;50.960;5.500;2023-03-20T11:36:20;9.13;;;3.22;;
59338;SDS011;45117;50.960;5.500;2023-03-20T11:38:48;10.82;;;3.58;;
59338;SDS011;45117;50.960;5.500;2023-03-20T11:41:16;10.07;;;3.63;;
59338;SDS011;45117;50.960;5.500;2023-03-20T11:43:44;11.88;;;4.30;;
59338;SDS011;45117;50.960;5.500;2023-03-20T11:46:11;11.68;;;3.17;;
59338;SDS011;45117;50.960;5.500;2023-03-20T11:48:40;12.98;;;3.28;;
59338;SDS011;45117;50.960;5.500;2023-03-20T11:51:08;10.18;;;3.22;;
59338;SDS011;45117;50.960;5.500;2023-03-20T11:53:39;14.48;;;3.33;;
59338;SDS011;45117;50.960;5.500;2023-03-20T11:56:08;12.02;;;3.65;;
59338;SDS011;45117;50.960;5.500;2023-03-20T11:58:38;16.08;;;4.20;;
59338;SDS011;45117;50.960;5.500;2023-03-20T12:01:16;10.10;;;3.65;;
59338;SDS011;45117;50.960;5.500;2023-03-20T12:03:44;14.75;;;4.05;;
59338;SDS011;45117;50.960;5.500;2023-03-20T12:06:20;12.70;;;4.40;;
59338;SDS011;45117;50.960;5.500;2023-03-20T12:08:50;10.30;;;3.53;;
59338;SDS011;45117;50.960;5.500;2023-03-20T12:11:35;13.23;;;3.72;;
59338;SDS011;45117;50.960;5.500;2023-03-20T12:14:12;16.15;;;3.00;;
59338;SDS011;45117;50.960;5.500;2023-03-20T12:16:43;13.02;;;3.20;;
59338;SDS011;45117;50.960;5.500;2023-03-20T12:19:13;10.55;;;3.10;;
59338;SDS011;45117;50.960;5.500;2023-03-20T12:21:44;10.20;;;2.90;;
59338;SDS011;45117;50.960;5.500;2023-03-20T12:24:14;9.18;;;3.15;;
59338;SDS011;45117;50.960;5.500;2023-03-20T12:26:47;12.15;;;3.05;;
59338;SDS011;45117;50.960;5.500;2023-03-20T12:29:21;11.05;;;3.15;;
59338;SDS011;45117;50.960;5.500;2023-03-20T12:31:52;10.77;;;3.22;;
59338;SDS011;45117;50.960;5.500;2023-03-20T12:34:23;10.68;;;3.00;;
59338;SDS011;45117;50.960;5.500;2023-03-20T12:36:54;8.27;;;2.50;;
59338;SDS011;45117;50.960;5.500;2023-03-20T12:39:22;7.90;;;2.60;;
59338;SDS011;45117;50.960;5.500;2023-03-20T12:41:57;7.95;;;2.30;;
59338;SDS011;45117;50.960;5.500;2023-03-20T12:44:35;7.18;;;2.45;;
59338;SDS011;45117;50.960;5.500;2023-03-20T12:47:11;10.55;;;2.85;;
59338;SDS011;45117;50.960;5.500;2023-03-20T12:49:46;6.38;;;2.42;;
59338;SDS011;45117;50.960;5.500;2023-03-20T12:52:21;10.93;;;2.25;;
59338;SDS011;45117;50.960;5.500;2023-03-20T12:55:06;12.07;;;2.45;;
59338;SDS011;45117;50.960;5.500;2023-03-20T12:57:43;10.18;;;2.63;;
59338;SDS011;45117;50.960;5.500;2023-03-20T13:00:22;7.90;;;2.05;;
59338;SDS011;45117;50.960;5.500;2023-03-20T13:02:59;8.65;;;1.88;;
59338;SDS011;45117;50.960;5.500;2023-03-20T13:05:49;8.45;;;2.45;;
59338;SDS011;45117;50.960;5.500;2023-03-20T13:08:27;9.60;;;2.47;;
59338;SDS011;45117;50.960;5.500;2023-03-20T13:11:08;9.48;;;2.47;;
59338;SDS011;45117;50.960;5.500;2023-03-20T13:13:42;7.05;;;2.50;;
59338;SDS011;45117;50.960;5.500;2023-03-20T13:16:14;10.75;;;2.50;;
59338;SDS011;45117;50.960;5.500;2023-03-20T13:18:50;9.95;;;2.30;;
59338;SDS011;45117;50.960;5.500;2023-03-20T13:21:26;10.57;;;2.70;;
59338;SDS011;45117;50.960;5.500;2023-03-20T13:24:01;7.03;;;2.58;;
59338;SDS011;45117;50.960;5.500;2023-03-20T13:26:41;8.65;;;2.55;;
59338;SDS011;45117;50.960;5.500;2023-03-20T13:29:14;8.57;;;2.03;;
59338;SDS011;45117;50.960;5.500;2023-03-20T13:31:51;9.57;;;2.80;;
59338;SDS011;45117;50.960;5.500;2023-03-20T13:34:26;8.70;;;2.40;;
59338;SDS011;45117;50.960;5.500;2023-03-20T13:37:06;9.60;;;2.20;;
59338;SDS011;45117;50.960;5.500;2023-03-20T13:39:39;8.13;;;2.67;;
59338;SDS011;45117;50.960;5.500;2023-03-20T13:42:10;8.65;;;2.40;;
59338;SDS011;45117;50.960;5.500;2023-03-20T13:44:41;6.50;;;2.17;;
59338;SDS011;45117;50.960;5.500;2023-03-20T13:47:11;8.30;;;2.50;;
59338;SDS011;45117;50.960;5.500;2023-03-20T13:49:41;9.38;;;2.80;;
59338;SDS011;45117;50.960;5.500;2023-03-20T13:52:15;7.32;;;2.25;;
59338;SDS011;45117;50.960;5.500;2023-03-20T13:54:49;6.18;;;2.60;;
59338;SDS011;45117;50.960;5.500;2023-03-20T13:57:35;10.68;;;2.95;;
59338;SDS011;45117;50.960;5.500;2023-03-20T14:00:17;7.10;;;2.30;;
59338;SDS011;45117;50.960;5.500;2023-03-20T14:02:59;7.38;;;2.00;;
59338;SDS011;45117;50.960;5.500;2023-03-20T14:05:36;10.60;;;2.20;;
59338;SDS011;45117;50.960;5.500;2023-03-20T14:08:22;9.73;;;2.50;;
59338;SDS011;45117;50.960;5.500;2023-03-20T14:11:04;6.88;;;2.50;;
59338;SDS011;45117;50.960;5.500;2023-03-20T14:13:34;9.15;;;2.42;;
59338;SDS011;45117;50.960;5.500;2023-03-20T14:16:01;7.75;;;2.30;;
59338;SDS011;45117;50.960;5.500;2023-03-20T14:18:29;6.05;;;2.10;;
59338;SDS011;45117;50.960;5.500;2023-03-20T14:20:57;7.55;;;2.30;;
59338;SDS011;45117;50.960;5.500;2023-03-20T14:23:33;11.27;;;3.00;;
59338;SDS011;45117;50.960;5.500;2023-03-20T14:26:05;8.73;;;2.55;;
59338;SDS011;45117;50.960;5.500;2023-03-20T14:28:42;12.98;;;2.70;;
59338;SDS011;45117;50.960;5.500;2023-03-20T14:31:12;9.80;;;2.58;;
59338;SDS011;45117;50.960;5.500;2023-03-20T14:33:52;9.00;;;2.60;;
59338;SDS011;45117;50.960;5.500;2023-03-20T14:36:26;9.48;;;2.30;;
59338;SDS011;45117;50.960;5.500;2023-03-20T14:38:58;7.88;;;2.65;;
59338;SDS011;45117;50.960;5.500;2023-03-20T14:41:33;7.78;;;2.35;;
59338;SDS011;45117;50.960;5.500;2023-03-20T14:44:14;12.07;;;2.78;;
59338;SDS011;45117;50.960;5.500;2023-03-20T14:46:49;7.95;;;2.67;;
59338;SDS011;45117;50.960;5.500;2023-03-20T14:49:22;8.98;;;2.95;;
59338;SDS011;45117;50.960;5.500;2023-03-20T14:51:51;6.57;;;2.42;;
59338;SDS011;45117;50.960;5.500;2023-03-20T14:54:26;9.45;;;2.42;;
59338;SDS011;45117;50.960;5.500;2023-03-20T14:56:53;8.15;;;2.28;;
59338;SDS011;45117;50.960;5.500;2023-03-20T14:59:21;14.63;;;3.00;;
59338;SDS011;45117;50.960;5.500;2023-03-20T15:01:55;9.32;;;2.63;;
59338;SDS011;45117;50.960;5.500;2023-03-20T15:04:25;10.32;;;2.72;;
59338;SDS011;45117;50.960;5.500;2023-03-20T15:06:56;11.52;;;2.63;;